Time;durP1;ratioP1;P1;durP2;ratioP2;P2;SDS_P1;SDS_P2;PMS_P1;PMS_P2;Temp;Humidity;BMP_temperature;BMP_pressure;BME280_temperature;BME280_humidity;BME280_pressure;Samples;Min_cycle;Max_cycle;Signal;HPM_P1;HPM_P2
2022/09/07 00:00:05;;;;;;;3.90;1.50;;;21.20;99.90;;;;;;7338832;19;109387;-75
2022/09/07 00:02:32;;;;;;;3.35;1.38;;;21.10;99.90;;;;;;7336376;19;110071;-74
2022/09/07 00:04:59;;;;;;;3.05;1.77;;;21.00;99.90;;;;;;7337334;19;111545;-74
2022/09/07 00:07:26;;;;;;;4.20;1.88;;;20.90;99.90;;;;;;7337098;19;109379;-74
2022/09/07 00:09:53;;;;;;;6.55;5.85;;;20.80;99.90;;;;;;7337509;19;109982;-76
2022/09/07 00:12:20;;;;;;;6.95;6.25;;;20.60;99.90;;;;;;7336985;19;110133;-75
2022/09/07 00:14:47;;;;;;;6.50;6.00;;;20.60;99.90;;;;;;7336034;19;109540;-75
2022/09/07 00:17:14;;;;;;;8.60;7.82;;;20.50;99.90;;;;;;7341815;19;109380;-74
2022/09/07 00:19:42;;;;;;;9.65;8.38;;;20.60;99.90;;;;;;7337491;19;110985;-75
2022/09/07 00:22:10;;;;;;;8.50;7.70;;;20.50;99.90;;;;;;7334599;19;110850;-74
2022/09/07 00:24:37;;;;;;;7.60;6.90;;;20.50;99.90;;;;;;7336618;19;110208;-74
2022/09/07 00:27:04;;;;;;;7.32;6.63;;;20.40;99.90;;;;;;7336928;19;110124;-74
2022/09/07 00:29:31;;;;;;;6.90;6.20;;;20.40;99.90;;;;;;7337240;19;110593;-75
2022/09/07 00:31:58;;;;;;;7.82;5.63;;;20.30;99.90;;;;;;7337185;19;111193;-74
2022/09/07 00:34:25;;;;;;;6.05;5.45;;;20.20;99.90;;;;;;7335177;19;109983;-75
2022/09/07 00:36:52;;;;;;;6.18;5.55;;;20.10;99.90;;;;;;7337574;19;110507;-75
2022/09/07 00:39:19;;;;;;;5.32;4.82;;;20.00;99.90;;;;;;7341675;19;113482;-75
2022/09/07 00:41:46;;;;;;;4.82;3.90;;;19.90;99.90;;;;;;7335772;19;109877;-75
2022/09/07 00:44:43;;;;;;;4.10;3.63;;;19.70;99.90;;;;;;7335681;19;111373;-74
2022/09/07 00:47:15;;;;;;;4.25;3.55;;;19.60;99.90;;;;;;7334741;19;109936;-74
2022/09/07 00:49:44;;;;;;;6.43;4.28;;;19.60;99.90;;;;;;7337421;19;110521;-74
2022/09/07 00:52:13;;;;;;;4.10;3.53;;;19.60;99.90;;;;;;7340779;19;110032;-75
2022/09/07 00:54:44;;;;;;;4.30;3.50;;;19.60;99.90;;;;;;7343365;19;109579;-75
2022/09/07 00:57:12;;;;;;;4.72;3.60;;;19.60;99.90;;;;;;7340895;19;110202;-75
2022/09/07 00:59:43;;;;;;;6.00;3.80;;;19.60;99.90;;;;;;7341917;19;110472;-75
2022/09/07 01:02:12;;;;;;;4.50;3.70;;;19.70;99.90;;;;;;7348226;19;109565;-75
2022/09/07 01:04:40;;;;;;;4.22;3.05;;;19.70;99.90;;;;;;7342335;19;111560;-75
2022/09/07 01:07:08;;;;;;;3.95;3.15;;;19.60;99.90;;;;;;7343483;19;109343;-74
2022/09/07 01:09:35;;;;;;;3.78;2.80;;;19.50;99.90;;;;;;7343709;19;110388;-75
2022/09/07 01:12:03;;;;;;;3.38;2.55;;;19.40;99.90;;;;;;7342108;19;111568;-74
2022/09/07 01:14:34;;;;;;;4.90;2.90;;;19.30;99.90;;;;;;7342973;19;109794;-75
2022/09/07 01:17:38;;;;;;;4.65;3.22;;;19.30;99.90;;;;;;7343469;19;110868;-75
2022/09/07 01:20:27;;;;;;;3.67;2.70;;;19.30;99.90;;;;;;7344174;19;114365;-75
2022/09/07 01:23:10;;;;;;;3.65;2.75;;;19.30;99.90;;;;;;7343161;19;111024;-76
2022/09/07 01:26:24;;;;;;;3.90;2.80;;;19.30;99.90;;;;;;7346343;19;110855;-75
2022/09/07 01:29:09;;;;;;;3.53;2.92;;;19.50;99.90;;;;;;7342115;19;109872;-75
2022/09/07 01:31:47;;;;;;;4.32;3.15;;;19.60;99.90;;;;;;7342286;19;109562;-76
2022/09/07 01:34:24;;;;;;;5.78;3.30;;;19.60;99.90;;;;;;7339800;19;111283;-75
2022/09/07 01:37:15;;;;;;;4.07;3.20;;;19.60;99.90;;;;;;7343144;19;109498;-78
2022/09/07 01:39:44;;;;;;;4.55;3.22;;;19.60;99.90;;;;;;7340496;19;109823;-78
2022/09/07 01:42:16;;;;;;;4.55;3.15;;;19.60;99.90;;;;;;7342580;19;110309;-77
2022/09/07 01:44:53;;;;;;;3.97;3.00;;;19.60;99.90;;;;;;7342754;19;109439;-78
2022/09/07 01:47:40;;;;;;;3.78;3.10;;;19.60;99.90;;;;;;7347317;19;109379;-78
2022/09/07 01:50:16;;;;;;;4.13;3.30;;;19.60;99.90;;;;;;7342103;19;109344;-77
2022/09/07 01:53:14;;;;;;;3.55;2.80;;;19.60;99.90;;;;;;7343150;19;111575;-77
2022/09/07 01:56:01;;;;;;;4.40;2.90;;;19.70;99.90;;;;;;7340020;19;110133;-77
2022/09/07 01:58:59;;;;;;;4.70;3.00;;;19.70;99.90;;;;;;7342354;19;111789;-75
2022/09/07 02:01:39;;;;;;;5.10;3.17;;;19.70;99.90;;;;;;7340087;19;109745;-75
2022/09/07 02:04:22;;;;;;;5.13;2.83;;;19.70;99.90;;;;;;7338406;19;111185;-75
2022/09/07 02:07:01;;;;;;;3.92;2.58;;;19.60;99.90;;;;;;7342099;19;109500;-75
2022/09/07 02:09:42;;;;;;;3.38;2.40;;;19.60;99.90;;;;;;7341788;19;112610;-76
2022/09/07 02:12:23;;;;;;;5.85;3.40;;;19.60;99.90;;;;;;7347536;19;112463;-76
2022/09/07 02:14:57;;;;;;;4.38;3.25;;;19.50;99.90;;;;;;7341000;19;110349;-76
2022/09/07 02:17:33;;;;;;;4.57;3.38;;;19.30;99.90;;;;;;7341510;19;110404;-76
2022/09/07 02:20:09;;;;;;;4.75;2.72;;;19.20;99.90;;;;;;7341343;19;110435;-75
2022/09/07 02:22:42;;;;;;;4.13;2.80;;;19.20;99.90;;;;;;7342023;19;110682;-76
2022/09/07 02:25:16;;;;;;;4.45;3.22;;;19.20;99.90;;;;;;7341080;19;110290;-75
2022/09/07 02:27:47;;;;;;;4.07;2.90;;;19.30;99.90;;;;;;7341174;19;111608;-75
2022/09/07 02:30:15;;;;;;;3.90;2.58;;;19.30;99.90;;;;;;7341705;19;110012;-75
2022/09/07 02:32:42;;;;;;;4.15;3.63;;;19.30;99.90;;;;;;7337372;19;111195;-75
2022/09/07 02:35:09;;;;;;;5.30;3.40;;;19.30;99.90;;;;;;7344086;19;110129;-75
2022/09/07 02:37:38;;;;;;;4.47;3.10;;;19.30;99.90;;;;;;7339216;19;110778;-75
2022/09/07 02:40:07;;;;;;;4.47;3.10;;;19.10;99.90;;;;;;7340311;19;109455;-76
2022/09/07 02:42:35;;;;;;;5.53;3.45;;;19.00;99.90;;;;;;7341469;19;110578;-75
2022/09/07 02:45:06;;;;;;;4.20;2.60;;;18.90;99.90;;;;;;7341574;19;111222;-75
2022/09/07 02:48:20;;;;;;;3.65;2.90;;;19.00;99.90;;;;;;7341314;19;109161;-75
2022/09/07 02:51:06;;;;;;;6.85;3.20;;;19.00;99.90;;;;;;7335489;19;111136;-75
2022/09/07 02:53:50;;;;;;;4.13;3.05;;;19.00;99.90;;;;;;7336144;19;111195;-75
2022/09/07 02:56:17;;;;;;;5.93;3.45;;;19.00;99.90;;;;;;7334728;19;109569;-75
2022/09/07 02:58:58;;;;;;;5.68;3.88;;;18.90;99.90;;;;;;7342029;19;114018;-75
2022/09/07 03:01:50;;;;;;;8.25;3.25;;;18.70;99.90;;;;;;7335235;19;109115;-77
2022/09/07 03:04:23;;;;;;;3.65;3.22;;;18.60;99.90;;;;;;7336009;19;110412;-77
2022/09/07 03:07:01;;;;;;;3.85;3.05;;;18.70;99.90;;;;;;7334473;19;110467;-77
2022/09/07 03:09:34;;;;;;;5.13;3.03;;;18.80;99.90;;;;;;7337120;19;110019;-76
2022/09/07 03:12:03;;;;;;;3.90;3.10;;;18.80;99.90;;;;;;7335551;19;109822;-76
2022/09/07 03:14:32;;;;;;;3.55;2.95;;;18.90;99.90;;;;;;7334047;19;110232;-77
2022/09/07 03:17:00;;;;;;;4.13;3.20;;;19.00;99.90;;;;;;7334665;19;110523;-76
2022/09/07 03:19:27;;;;;;;4.53;2.95;;;19.10;99.90;;;;;;7336573;19;111897;-76
2022/09/07 03:21:54;;;;;;;5.43;3.13;;;19.10;99.90;;;;;;7341538;19;111060;-76
2022/09/07 03:24:21;;;;;;;4.05;3.33;;;19.00;99.90;;;;;;7338430;19;110497;-76
2022/09/07 03:26:50;;;;;;;4.50;3.35;;;19.00;99.90;;;;;;7339885;19;111564;-76
2022/09/07 03:29:18;;;;;;;4.45;3.30;;;18.90;99.90;;;;;;7340653;19;109626;-77
2022/09/07 03:31:45;;;;;;;3.58;2.65;;;18.90;99.90;;;;;;7339238;19;110484;-76
2022/09/07 03:34:13;;;;;;;4.30;2.95;;;18.90;99.90;;;;;;7339977;19;111100;-76
2022/09/07 03:36:40;;;;;;;4.18;3.10;;;18.90;99.90;;;;;;7337580;19;110243;-77
2022/09/07 03:39:07;;;;;;;3.58;2.95;;;18.90;99.90;;;;;;7339516;19;110229;-76
2022/09/07 03:41:34;;;;;;;4.03;3.20;;;18.90;99.90;;;;;;7337504;19;111576;-76
2022/09/07 03:44:05;;;;;;;6.68;3.20;;;18.80;99.90;;;;;;7345060;19;109324;-76
2022/09/07 03:46:33;;;;;;;3.78;2.80;;;18.80;99.90;;;;;;7338968;19;111245;-76
2022/09/07 03:49:00;;;;;;;4.18;3.63;;;18.80;99.90;;;;;;7337263;19;109259;-76
2022/09/07 03:51:27;;;;;;;5.32;3.03;;;18.80;99.90;;;;;;7338120;19;109668;-76
2022/09/07 03:53:54;;;;;;;4.32;3.58;;;18.70;99.90;;;;;;7338230;19;111223;-76
2022/09/07 03:56:23;;;;;;;4.40;3.25;;;18.60;99.90;;;;;;7336961;19;109755;-77
2022/09/07 03:58:52;;;;;;;4.75;3.40;;;18.60;99.90;;;;;;7339357;19;109621;-76
2022/09/07 04:01:22;;;;;;;4.57;3.67;;;18.60;99.90;;;;;;7337837;19;110328;-77
2022/09/07 04:03:49;;;;;;;4.57;3.65;;;18.60;99.90;;;;;;7339005;19;109388;-76
2022/09/07 04:06:18;;;;;;;3.80;3.25;;;18.60;99.90;;;;;;7337341;19;110176;-77
2022/09/07 04:08:45;;;;;;;6.72;3.90;;;18.70;99.90;;;;;;7336386;19;109451;-76
2022/09/07 04:11:15;;;;;;;4.50;3.83;;;18.80;99.90;;;;;;7336390;19;110110;-76
2022/09/07 04:13:43;;;;;;;6.03;3.55;;;18.80;99.90;;;;;;7337106;19;110176;-77
2022/09/07 04:16:20;;;;;;;4.85;4.10;;;18.90;99.90;;;;;;7334536;19;109907;-76
2022/09/07 04:18:49;;;;;;;5.15;3.75;;;19.00;99.90;;;;;;7338459;19;110575;-77
2022/09/07 04:21:19;;;;;;;7.97;4.05;;;19.00;99.90;;;;;;7335799;19;110244;-77
2022/09/07 04:23:48;;;;;;;4.82;4.32;;;19.00;99.90;;;;;;7338028;19;109596;-77
2022/09/07 04:26:18;;;;;;;6.38;4.30;;;19.10;99.90;;;;;;7348701;19;109369;-77
2022/09/07 04:28:45;;;;;;;7.10;3.97;;;19.10;99.90;;;;;;7344982;19;110845;-77
2022/09/07 04:31:14;;;;;;;4.93;4.40;;;19.10;99.90;;;;;;7346120;19;110279;-77
2022/09/07 04:33:43;;;;;;;5.07;3.97;;;19.10;99.90;;;;;;7344551;19;110647;-77
2022/09/07 04:36:11;;;;;;;4.80;4.20;;;19.10;99.90;;;;;;7344077;19;109317;-77
2022/09/07 04:38:38;;;;;;;5.20;3.85;;;19.00;99.90;;;;;;7345904;19;112237;-77
2022/09/07 04:41:17;;;;;;;6.00;4.15;;;19.00;99.90;;;;;;7342396;19;110223;-76
2022/09/07 04:43:45;;;;;;;6.72;4.75;;;19.00;99.90;;;;;;7344074;19;109231;-77
2022/09/07 04:46:28;;;;;;;5.00;4.40;;;19.00;99.90;;;;;;7342789;19;109625;-77
2022/09/07 04:49:03;;;;;;;9.88;4.85;;;19.10;99.90;;;;;;7349030;19;111130;-77
2022/09/07 04:51:32;;;;;;;5.07;4.57;;;19.10;99.90;;;;;;7345401;19;110271;-77
2022/09/07 04:54:01;;;;;;;6.93;5.18;;;19.10;99.90;;;;;;7341689;19;111097;-76
2022/09/07 04:56:28;;;;;;;5.57;4.70;;;19.20;99.90;;;;;;7344246;19;109864;-77
2022/09/07 04:58:55;;;;;;;6.25;5.15;;;19.20;99.90;;;;;;7345295;19;109405;-76
2022/09/07 05:01:24;;;;;;;11.65;5.57;;;19.30;99.90;;;;;;7344650;19;112111;-77
2022/09/07 05:03:52;;;;;;;7.82;5.93;;;19.30;99.90;;;;;;7340409;19;111229;-78
2022/09/07 05:06:20;;;;;;;8.18;5.78;;;19.30;99.90;;;;;;7345019;19;111452;-77
2022/09/07 05:08:50;;;;;;;5.97;5.35;;;19.30;99.90;;;;;;7344850;19;111483;-77
2022/09/07 05:11:19;;;;;;;8.13;5.53;;;19.30;99.90;;;;;;7349961;19;109562;-77
2022/09/07 05:13:52;;;;;;;7.63;5.70;;;19.40;99.90;;;;;;7343665;19;110221;-77
2022/09/07 05:16:22;;;;;;;7.88;5.38;;;19.40;99.90;;;;;;7344029;19;109805;-77
2022/09/07 05:18:54;;;;;;;5.70;5.05;;;19.40;99.90;;;;;;7343893;19;110190;-77
2022/09/07 05:21:24;;;;;;;7.13;5.13;;;19.50;99.90;;;;;;7344369;19;110750;-77
2022/09/07 05:23:53;;;;;;;6.65;5.50;;;19.50;99.90;;;;;;7343892;19;109652;-78
2022/09/07 05:26:22;;;;;;;6.13;4.70;;;19.50;99.90;;;;;;7344011;19;111104;-76
2022/09/07 05:28:49;;;;;;;6.40;4.63;;;19.50;99.90;;;;;;7342253;19;110107;-77
2022/09/07 05:31:19;;;;;;;10.68;4.93;;;19.50;99.90;;;;;;7344002;19;110791;-76
2022/09/07 05:33:52;;;;;;;6.35;5.30;;;19.50;99.90;;;;;;7347428;19;110792;-77
2022/09/07 05:36:39;;;;;;;10.63;6.03;;;19.50;99.90;;;;;;7339219;19;109334;-77
2022/09/07 05:39:07;;;;;;;8.00;6.63;;;19.50;99.90;;;;;;7342204;19;110919;-77
2022/09/07 05:41:34;;;;;;;8.85;7.72;;;19.50;99.90;;;;;;7340104;19;110957;-76
2022/09/07 05:44:01;;;;;;;10.65;7.70;;;19.50;99.90;;;;;;7344025;19;110849;-77
2022/09/07 05:46:51;;;;;;;10.55;7.68;;;19.50;99.90;;;;;;7341896;19;109818;-76
2022/09/07 05:49:18;;;;;;;9.27;7.82;;;19.50;99.90;;;;;;7342997;19;110116;-77
2022/09/07 05:51:45;;;;;;;14.40;8.65;;;19.50;99.90;;;;;;7343601;19;109352;-77
2022/09/07 05:54:13;;;;;;;16.02;9.73;;;19.50;99.90;;;;;;7341722;19;109394;-76
2022/09/07 05:56:40;;;;;;;11.25;9.77;;;19.50;99.90;;;;;;7345594;19;110097;-77
2022/09/07 05:59:07;;;;;;;11.93;10.10;;;19.60;99.90;;;;;;7343235;19;110576;-77
2022/09/07 06:01:35;;;;;;;11.23;10.02;;;19.60;99.90;;;;;;7341493;19;110752;-77
2022/09/07 06:04:02;;;;;;;18.40;9.70;;;19.60;99.90;;;;;;7337009;19;110696;-76
2022/09/07 06:06:29;;;;;;;12.15;9.98;;;19.70;99.90;;;;;;7342848;19;109775;-79
2022/09/07 06:08:57;;;;;;;15.27;10.45;;;19.70;99.90;;;;;;7341094;19;111261;-78
2022/09/07 06:11:25;;;;;;;15.98;10.57;;;19.70;99.90;;;;;;7339718;19;111804;-78
2022/09/07 06:13:52;;;;;;;11.70;10.25;;;19.70;99.90;;;;;;7340483;19;113282;-78
2022/09/07 06:16:20;;;;;;;14.15;11.07;;;19.80;99.90;;;;;;7345490;19;110439;-78
2022/09/07 06:18:48;;;;;;;16.63;11.88;;;19.80;99.90;;;;;;7340811;19;112000;-78
2022/09/07 06:21:18;;;;;;;15.75;12.43;;;19.80;99.90;;;;;;7340458;19;111494;-78
2022/09/07 06:23:46;;;;;;;13.20;11.52;;;19.80;99.90;;;;;;7338482;19;111496;-78
2022/09/07 06:26:15;;;;;;;16.38;13.52;;;19.90;99.90;;;;;;7337661;19;111788;-79
2022/09/07 06:28:44;;;;;;;19.73;14.25;;;19.90;99.90;;;;;;7339916;19;110269;-79
2022/09/07 06:31:17;;;;;;;22.70;16.17;;;19.90;99.90;;;;;;7339854;19;110425;-78
2022/09/07 06:33:46;;;;;;;23.77;16.70;;;19.90;99.90;;;;;;7339149;19;111547;-79
2022/09/07 06:36:15;;;;;;;23.83;18.10;;;19.90;99.90;;;;;;7337678;19;111328;-78
2022/09/07 06:38:43;;;;;;;26.77;18.85;;;19.90;99.90;;;;;;7345472;19;111304;-78
2022/09/07 06:41:14;;;;;;;20.80;17.50;;;20.00;99.90;;;;;;7339533;19;111551;-78
2022/09/07 06:44:01;;;;;;;24.13;18.98;;;20.10;99.90;;;;;;7336234;19;112564;-79
2022/09/07 06:46:28;;;;;;;20.30;17.27;;;20.10;99.90;;;;;;7338684;19;111680;-79
2022/09/07 06:49:16;;;;;;;22.07;17.63;;;20.20;99.90;;;;;;7338415;19;111582;-77
2022/09/07 06:51:43;;;;;;;23.85;19.40;;;20.30;99.90;;;;;;7336660;19;114373;-78
2022/09/07 06:54:10;;;;;;;26.45;19.38;;;20.40;99.90;;;;;;7340458;19;111765;-78
2022/09/07 06:56:57;;;;;;;24.05;18.60;;;20.50;99.90;;;;;;7337453;19;109951;-78
2022/09/07 06:59:24;;;;;;;25.10;18.50;;;20.50;99.90;;;;;;7338015;19;110881;-78
2022/09/07 07:01:51;;;;;;;24.60;19.02;;;20.60;99.90;;;;;;7342939;19;111770;-79
2022/09/07 07:04:18;;;;;;;24.10;18.75;;;20.70;99.90;;;;;;7336192;19;110804;-79
2022/09/07 07:06:45;;;;;;;22.67;19.05;;;20.70;99.90;;;;;;7337254;19;115929;-78
2022/09/07 07:09:12;;;;;;;23.83;19.17;;;20.80;99.90;;;;;;7339548;19;111202;-79
2022/09/07 07:11:42;;;;;;;24.15;18.58;;;20.90;99.90;;;;;;7339232;19;111441;-79
2022/09/07 07:14:16;;;;;;;24.33;19.88;;;21.00;99.90;;;;;;7339008;19;115934;-78
2022/09/07 07:16:43;;;;;;;23.23;19.15;;;21.10;99.90;;;;;;7337628;19;114024;-78
2022/09/07 07:19:10;;;;;;;22.27;18.45;;;21.20;99.90;;;;;;7338469;19;111494;-79
2022/09/07 07:21:37;;;;;;;24.00;18.20;;;21.30;99.90;;;;;;7338010;19;111046;-79
2022/09/07 07:24:24;;;;;;;19.15;17.08;;;21.30;99.90;;;;;;7344813;19;114296;-79
2022/09/07 07:26:52;;;;;;;21.83;17.40;;;21.50;99.90;;;;;;7338143;19;112256;-78
2022/09/07 07:29:19;;;;;;;21.85;16.00;;;21.60;99.90;;;;;;7336630;19;110118;-77
2022/09/07 07:31:49;;;;;;;19.67;16.70;;;21.60;99.90;;;;;;7337523;19;111442;-78
2022/09/07 07:34:16;;;;;;;22.33;15.52;;;21.70;99.90;;;;;;7339001;19;111730;-78
2022/09/07 07:36:44;;;;;;;17.35;15.57;;;21.70;99.90;;;;;;7336356;19;110603;-78
2022/09/07 07:39:10;;;;;;;21.40;16.13;;;21.70;99.90;;;;;;7338245;19;111884;-79
2022/09/07 07:41:57;;;;;;;30.40;15.07;;;21.80;99.90;;;;;;7337555;19;111219;-79
2022/09/07 07:44:30;;;;;;;19.60;14.38;;;21.80;99.90;;;;;;7337590;19;111398;-81
2022/09/07 07:46:57;;;;;;;17.92;14.40;;;21.90;99.90;;;;;;7343153;19;110684;-79
2022/09/07 07:49:25;;;;;;;21.33;14.23;;;22.00;99.90;;;;;;7338021;19;111280;-78
2022/09/07 07:51:55;;;;;;;15.50;13.18;;;22.10;99.90;;;;;;7337408;19;111395;-78
2022/09/07 07:54:42;;;;;;;19.40;14.27;;;22.10;99.90;;;;;;7336336;19;111567;-78
2022/09/07 07:57:10;;;;;;;17.85;12.80;;;22.10;99.90;;;;;;7335090;19;111284;-80
2022/09/07 07:59:38;;;;;;;18.88;12.90;;;22.20;99.90;;;;;;7335829;19;111626;-78
2022/09/07 08:02:07;;;;;;;17.25;12.63;;;22.30;99.90;;;;;;7334287;19;110834;-79
2022/09/07 08:04:35;;;;;;;16.45;11.80;;;22.40;99.90;;;;;;7334257;19;110203;-78
2022/09/07 08:07:03;;;;;;;17.70;11.65;;;22.40;99.90;;;;;;7334518;19;111584;-78
2022/09/07 08:09:41;;;;;;;14.40;10.60;;;22.40;99.90;;;;;;7337808;19;111726;-78
2022/09/07 08:12:10;;;;;;;16.45;10.98;;;22.50;99.90;;;;;;7336299;19;111493;-78
2022/09/07 08:14:41;;;;;;;14.70;10.75;;;22.60;99.90;;;;;;7336354;19;111327;-78
2022/09/07 08:17:10;;;;;;;15.30;9.45;;;22.70;99.90;;;;;;7336099;19;111482;-78
2022/09/07 08:19:37;;;;;;;12.80;9.02;;;22.80;99.90;;;;;;7338257;19;110920;-80
2022/09/07 08:22:05;;;;;;;13.73;8.15;;;22.80;99.90;;;;;;7338309;19;111128;-80
2022/09/07 08:24:32;;;;;;;10.55;7.07;;;22.90;99.90;;;;;;7337125;19;110040;-79
2022/09/07 08:27:02;;;;;;;13.18;7.43;;;22.90;99.90;;;;;;7335892;19;109767;-79
2022/09/07 08:29:30;;;;;;;10.90;6.40;;;23.00;99.90;;;;;;7342223;19;110524;-78
2022/09/07 08:32:02;;;;;;;9.45;6.15;;;23.10;99.90;;;;;;7339021;19;109775;-79
2022/09/07 08:34:29;;;;;;;6.68;5.00;;;23.10;99.90;;;;;;7336975;19;110035;-81
2022/09/07 08:36:57;;;;;;;9.63;5.15;;;23.20;99.90;;;;;;7336072;19;110792;-80
2022/09/07 08:39:24;;;;;;;12.38;5.35;;;23.20;99.90;;;;;;7338259;19;109419;-81
2022/09/07 08:42:35;;;;;;;6.93;4.93;;;23.20;99.90;;;;;;7339030;19;109592;-80
2022/09/07 08:45:13;;;;;;;9.18;4.68;;;23.30;99.90;;;;;;7334427;19;111741;-80
2022/09/07 08:47:48;;;;;;;9.20;4.68;;;23.30;99.90;;;;;;7332452;19;109406;-78
2022/09/07 08:50:30;;;;;;;10.32;5.07;;;23.40;99.90;;;;;;7333555;19;110772;-79
2022/09/07 08:53:12;;;;;;;11.20;4.57;;;23.50;99.90;;;;;;7339283;19;109742;-78
2022/09/07 08:55:54;;;;;;;9.50;4.93;;;23.50;99.90;;;;;;7333788;19;110774;-81
2022/09/07 08:58:30;;;;;;;9.10;5.68;;;23.60;99.90;;;;;;7332361;19;110083;-79
2022/09/07 09:01:21;;;;;;;10.63;4.88;;;23.60;99.90;;;;;;7333514;19;109451;-81
2022/09/07 09:04:33;;;;;;;8.77;4.15;;;23.70;99.90;;;;;;7330139;19;110489;-81
2022/09/07 09:07:47;;;;;;;10.57;4.13;;;23.90;99.90;;;;;;7332919;19;112816;-81
2022/09/07 09:10:55;;;;;;;11.43;3.60;;;23.90;99.90;;;;;;7333107;19;109671;-79
2022/09/07 09:13:50;;;;;;;12.80;4.03;;;24.10;99.90;;;;;;7338661;19;110225;-82
2022/09/07 09:16:22;;;;;;;7.43;3.67;;;24.20;99.90;;;;;;7340433;19;110834;-79
2022/09/07 09:19:14;;;;;;;9.07;3.05;;;24.30;99.90;;;;;;7344205;19;109863;-78
2022/09/07 09:21:42;;;;;;;7.63;1.60;;;24.30;99.90;;;;;;7343023;19;110281;-79
2022/09/07 09:24:20;;;;;;;6.38;1.40;;;24.30;99.90;;;;;;7342916;19;109212;-79
2022/09/07 09:26:55;;;;;;;7.72;1.88;;;24.30;99.90;;;;;;7342638;19;110225;-79
2022/09/07 09:29:22;;;;;;;4.35;1.58;;;24.40;99.90;;;;;;7343651;19;110783;-79
2022/09/07 09:31:50;;;;;;;4.07;1.17;;;24.50;99.90;;;;;;7343597;19;109694;-79
2022/09/07 09:34:19;;;;;;;3.83;1.13;;;24.60;99.90;;;;;;7343221;19;111830;-78
2022/09/07 09:36:54;;;;;;;3.67;1.27;;;24.70;99.90;;;;;;7343835;19;110347;-80
2022/09/07 09:39:35;;;;;;;4.40;1.38;;;24.80;99.90;;;;;;7341502;19;109328;-80
2022/09/07 09:42:39;;;;;;;5.18;1.40;;;24.90;99.90;;;;;;7348000;19;110037;-81
2022/09/07 09:45:24;;;;;;;10.93;1.42;;;25.00;99.60;;;;;;7339141;19;110358;-80
2022/09/07 09:47:53;;;;;;;5.85;1.17;;;25.10;99.40;;;;;;7339355;19;109510;-79
2022/09/07 09:50:32;;;;;;;3.20;1.38;;;25.20;99.40;;;;;;7339334;19;112358;-79
2022/09/07 09:53:31;;;;;;;3.67;1.10;;;25.30;98.70;;;;;;7339594;19;110111;-78
2022/09/07 09:56:00;;;;;;;5.03;1.20;;;25.40;98.70;;;;;;7337593;19;109422;-78
2022/09/07 09:58:32;;;;;;;4.65;1.13;;;25.40;98.40;;;;;;7336993;19;111297;-80
2022/09/07 10:01:33;;;;;;;5.15;1.38;;;25.40;98.40;;;;;;7338874;19;110119;-80
2022/09/07 10:04:22;;;;;;;4.07;1.13;;;25.50;98.10;;;;;;7333807;19;110736;-80
2022/09/07 10:06:52;;;;;;;7.40;1.73;;;25.60;98.00;;;;;;7344688;19;111361;-80
2022/09/07 10:09:25;;;;;;;4.70;1.23;;;25.70;98.20;;;;;;7339370;19;109325;-80
2022/09/07 10:12:01;;;;;;;6.28;1.27;;;25.70;98.30;;;;;;7338716;19;111260;-81
2022/09/07 10:14:40;;;;;;;5.00;1.33;;;25.80;97.70;;;;;;7338486;19;109394;-80
2022/09/07 10:17:28;;;;;;;4.65;1.33;;;25.90;97.50;;;;;;7338271;19;109337;-81
2022/09/07 10:20:00;;;;;;;5.32;1.40;;;26.00;97.10;;;;;;7341986;19;111501;-80
2022/09/07 10:22:35;;;;;;;3.80;1.45;;;26.10;97.10;;;;;;7339954;19;110866;-80
2022/09/07 10:25:38;;;;;;;3.70;1.55;;;26.10;96.90;;;;;;7342909;19;109150;-81
2022/09/07 10:28:14;;;;;;;5.03;1.55;;;25.90;95.90;;;;;;7339299;19;109246;-79
2022/09/07 10:30:53;;;;;;;5.18;1.60;;;25.80;96.60;;;;;;7347170;19;109192;-80
2022/09/07 10:33:22;;;;;;;7.50;1.70;;;25.70;96.10;;;;;;7340645;19;110683;-81
2022/09/07 10:36:13;;;;;;;4.93;1.83;;;25.60;96.40;;;;;;7340581;19;109605;-81
2022/09/07 10:39:10;;;;;;;4.03;1.60;;;25.50;96.60;;;;;;7341265;19;110834;-81
2022/09/07 10:42:00;;;;;;;5.80;1.70;;;25.50;96.50;;;;;;7340326;19;111332;-81
2022/09/07 10:44:30;;;;;;;5.32;1.58;;;25.50;96.80;;;;;;7341477;19;109530;-81
2022/09/07 10:47:12;;;;;;;4.55;1.20;;;25.50;96.80;;;;;;7341183;19;109531;-80
2022/09/07 10:49:42;;;;;;;4.65;1.45;;;25.60;96.70;;;;;;7341231;19;111060;-80
2022/09/07 10:52:54;;;;;;;4.60;1.67;;;25.60;96.80;;;;;;7346494;19;109369;-79
2022/09/07 10:55:31;;;;;;;3.50;1.40;;;25.60;95.90;;;;;;7340815;19;111260;-79
2022/09/07 10:58:14;;;;;;;8.57;1.48;;;25.50;96.00;;;;;;7340798;19;111199;-78
2022/09/07 11:00:59;;;;;;;4.88;1.45;;;25.50;95.70;;;;;;7341465;19;110828;-78
2022/09/07 11:03:45;;;;;;;4.55;1.30;;;25.40;96.20;;;;;;7337186;19;111542;-78
2022/09/07 11:06:24;;;;;;;4.57;0.95;;;25.40;96.20;;;;;;7341145;19;110080;-78
2022/09/07 11:08:57;;;;;;;4.40;1.10;;;25.40;96.70;;;;;;7341313;19;109748;-79
2022/09/07 11:11:49;;;;;;;3.10;1.00;;;25.60;95.80;;;;;;7340234;19;110438;-78
2022/09/07 11:14:37;;;;;;;;;;;25.70;95.30;;;;;;7341957;19;110554;-79
2022/09/07 11:17:17;;;;;;;6.72;1.20;;;25.60;95.20;;;;;;7347821;19;110821;-79
2022/09/07 11:20:02;;;;;;;3.50;1.10;;;25.50;95.10;;;;;;7338669;19;109898;-79
2022/09/07 11:22:34;;;;;;;8.50;1.23;;;25.50;95.30;;;;;;7339143;19;110371;-79
2022/09/07 11:25:19;;;;;;;8.23;1.00;;;25.40;95.30;;;;;;7338643;19;110327;-77
2022/09/07 11:28:16;;;;;;;5.03;1.20;;;25.50;94.80;;;;;;7340407;19;109940;-78
2022/09/07 11:30:49;;;;;;;2.55;0.90;;;25.60;94.70;;;;;;7339565;19;110404;-80
2022/09/07 11:33:40;;;;;;;3.95;1.00;;;25.70;94.70;;;;;;7339515;19;110168;-79
2022/09/07 11:36:13;;;;;;;4.63;1.13;;;25.80;94.70;;;;;;7335802;19;110265;-71
2022/09/07 11:39:11;;;;;;;3.88;0.90;;;26.00;94.00;;;;;;7339321;19;110609;-71
2022/09/07 11:41:51;;;;;;;2.88;0.95;;;26.20;93.90;;;;;;7342756;19;114262;-73
2022/09/07 11:44:30;;;;;;;2.92;0.80;;;26.40;93.30;;;;;;7338432;19;109567;-77
2022/09/07 11:47:03;;;;;;;2.88;0.80;;;26.50;92.80;;;;;;7339976;19;111298;-71
2022/09/07 11:49:30;;;;;;;4.10;0.85;;;26.60;91.90;;;;;;7338707;19;110165;-72
2022/09/07 11:52:03;;;;;;;3.45;0.85;;;26.70;92.30;;;;;;7339186;19;112533;-71
2022/09/07 11:54:53;;;;;;;2.85;0.82;;;26.80;91.70;;;;;;7338834;19;110105;-73
2022/09/07 11:57:37;;;;;;;4.35;0.95;;;27.00;91.20;;;;;;7338851;19;109634;-72
2022/09/07 12:00:13;;;;;;;2.97;0.60;;;27.10;91.10;;;;;;7336413;19;110710;-72
2022/09/07 12:03:06;;;;;;;4.90;0.80;;;27.20;90.70;;;;;;7336770;19;110297;-71
2022/09/07 12:05:54;;;;;;;4.57;0.80;;;27.30;90.40;;;;;;7342543;19;109410;-71
2022/09/07 12:08:49;;;;;;;2.85;0.70;;;27.40;89.20;;;;;;7338741;19;110353;-72
2022/09/07 12:11:42;;;;;;;2.72;0.80;;;27.50;90.20;;;;;;7338286;19;109372;-72
2022/09/07 12:14:20;;;;;;;3.95;0.80;;;27.60;90.00;;;;;;7335418;19;110524;-71
2022/09/07 12:16:49;;;;;;;3.25;0.88;;;27.80;89.20;;;;;;7337880;19;110102;-75
2022/09/07 12:19:26;;;;;;;6.47;0.90;;;27.90;87.80;;;;;;7337799;19;109626;-71
2022/09/07 12:21:57;;;;;;;;;;;28.00;87.80;;;;;;7337979;19;110765;-75
2022/09/07 12:24:50;;;;;;;2.45;0.63;;;28.20;88.80;;;;;;7340320;19;111291;-74
2022/09/07 12:27:20;;;;;;;2.33;0.73;;;28.20;85.90;;;;;;7338141;19;109292;-71
2022/09/07 12:29:49;;;;;;;4.50;0.70;;;28.20;86.20;;;;;;7337310;19;110536;-80
2022/09/07 12:32:47;;;;;;;3.20;0.57;;;28.40;87.00;;;;;;7333443;19;110646;-78
2022/09/07 12:35:32;;;;;;;4.90;0.90;;;28.80;85.00;;;;;;7334074;19;110318;-78
2022/09/07 12:38:01;;;;;;;4.32;1.00;;;29.00;83.30;;;;;;7332913;19;111538;-78
2022/09/07 12:40:32;;;;;;;6.22;0.88;;;29.10;83.50;;;;;;7335020;19;109314;-79
2022/09/07 12:43:14;;;;;;;4.30;0.82;;;29.20;82.90;;;;;;7338087;19;110425;-80
2022/09/07 12:45:41;;;;;;;4.85;0.80;;;29.30;81.20;;;;;;7340356;19;111059;-81
2022/09/07 12:48:31;;;;;;;2.63;0.80;;;29.30;82.70;;;;;;7341243;19;109626;-78
2022/09/07 12:51:05;;;;;;;5.03;0.73;;;29.50;81.30;;;;;;7353252;19;110793;-78
2022/09/07 12:53:41;;;;;;;6.40;0.80;;;29.60;80.40;;;;;;7350242;19;109390;-77
2022/09/07 12:56:28;;;;;;;3.42;0.90;;;29.70;79.50;;;;;;7349078;19;111463;-80
2022/09/07 12:59:47;;;;;;;3.28;0.52;;;29.70;81.10;;;;;;7350179;19;110157;-80
2022/09/07 13:02:48;;;;;;;3.75;1.00;;;29.80;79.80;;;;;;7343223;19;109654;-79
2022/09/07 13:05:36;;;;;;;3.28;0.85;;;29.80;78.10;;;;;;7344299;19;110674;-78
2022/09/07 13:08:21;;;;;;;4.50;0.63;;;29.80;77.80;;;;;;7341660;19;110527;-79
2022/09/07 13:10:48;;;;;;;3.50;0.90;;;29.90;79.30;;;;;;7338732;19;109522;-79
2022/09/07 13:13:27;;;;;;;4.40;0.85;;;30.10;78.50;;;;;;7339440;19;109514;-78